Time;durP1;ratioP1;P1;durP2;ratioP2;P2;SDS_P1;SDS_P2;PMS_P1;PMS_P2;Temp;Humidity;BMP_temperature;BMP_pressure;BME280_temperature;BME280_humidity;BME280_pressure;Samples;Min_cycle;Max_cycle;Signal;HPM_P1;HPM_P2
2022/08/08 00:02:26;;;;;;;0.70;0.40;;;13.50;99.90;;;;;;6215506;23;20032;-88
2022/08/08 00:05:29;;;;;;;1.95;1.15;;;13.30;99.90;;;;;;6215582;23;20025;-86
2022/08/08 00:08:22;;;;;;;0.98;0.30;;;13.30;99.90;;;;;;6215586;23;20100;-85
2022/08/08 00:10:51;;;;;;;0.30;0.30;;;13.30;99.90;;;;;;6215785;23;20079;-84
2022/08/08 00:13:21;;;;;;;0.32;0.30;;;13.30;99.90;;;;;;6188747;23;20381;-85
2022/08/08 00:15:58;;;;;;;0.25;0.20;;;13.60;99.90;;;;;;6189019;23;20016;-89
2022/08/08 00:18:48;;;;;;;0.30;0.30;;;13.30;99.90;;;;;;6215864;23;20020;-84
2022/08/08 00:21:18;;;;;;;0.30;0.30;;;13.50;99.90;;;;;;6215674;23;20024;-86
2022/08/08 00:23:54;;;;;;;0.30;0.30;;;13.20;99.90;;;;;;6188320;23;20017;-85
2022/08/08 00:26:34;;;;;;;0.80;0.52;;;13.10;99.90;;;;;;6215068;23;20017;-87
2022/08/08 00:29:16;;;;;;;1.40;0.68;;;13.10;99.90;;;;;;6215687;23;20017;-86
2022/08/08 00:31:49;;;;;;;1.00;0.50;;;13.20;99.90;;;;;;6215714;23;20373;-85
2022/08/08 00:37:51;;;;;;;0.85;0.50;;;12.90;99.90;;;;;;6215776;23;20099;-85
2022/08/08 00:40:37;;;;;;;0.85;0.50;;;13.00;99.90;;;;;;6215058;23;20446;-84
2022/08/08 00:43:19;;;;;;;0.52;0.50;;;13.00;99.90;;;;;;6215164;23;20315;-84
2022/08/08 00:46:21;;;;;;;0.75;0.50;;;13.00;99.90;;;;;;6215484;23;20016;-87
2022/08/08 00:49:14;;;;;;;1.70;0.60;;;13.00;99.90;;;;;;6215523;23;20173;-85
2022/08/08 00:51:58;;;;;;;0.50;0.40;;;13.10;99.90;;;;;;6215107;23;20020;-87
2022/08/08 00:55:07;;;;;;;2.30;0.47;;;13.10;99.90;;;;;;6214757;23;20024;-85
2022/08/08 00:57:55;;;;;;;1.63;0.40;;;13.00;99.90;;;;;;6188467;23;20023;-88
2022/08/08 01:00:24;;;;;;;0.55;0.43;;;13.10;99.90;;;;;;6214459;23;20029;-85
2022/08/08 01:03:12;;;;;;;0.90;0.50;;;13.80;99.90;;;;;;6215219;23;20408;-85
2022/08/08 01:06:12;;;;;;;0.70;0.47;;;13.10;99.90;;;;;;6152301;23;20369;-86
2022/08/08 01:08:53;;;;;;;0.70;0.40;;;13.10;99.90;;;;;;6152414;23;20076;-85
2022/08/08 01:11:33;;;;;;;1.02;0.50;;;13.60;99.90;;;;;;6152839;23;20017;-86
2022/08/08 01:14:36;;;;;;;0.80;0.50;;;13.10;99.90;;;;;;6152375;23;20013;-85
2022/08/08 01:17:16;;;;;;;0.75;0.40;;;13.10;99.90;;;;;;6152223;23;20021;-84
2022/08/08 01:20:07;;;;;;;1.67;0.60;;;13.20;99.90;;;;;;6152218;23;20060;-84
2022/08/08 01:23:00;;;;;;;0.60;0.50;;;13.10;99.90;;;;;;6127405;23;20097;-84
2022/08/08 01:25:57;;;;;;;0.80;0.60;;;13.10;99.90;;;;;;6152403;23;20535;-87
2022/08/08 01:28:50;;;;;;;2.75;0.40;;;13.10;99.90;;;;;;6064746;23;20022;-85
2022/08/08 01:31:27;;;;;;;0.98;0.50;;;13.10;99.90;;;;;;6064872;23;20026;-85
2022/08/08 01:34:46;;;;;;;1.52;0.60;;;13.10;99.90;;;;;;6068198;23;20022;-86
2022/08/08 01:37:49;;;;;;;0.93;0.52;;;13.00;99.90;;;;;;6067614;23;20382;-86
2022/08/08 01:40:39;;;;;;;2.67;0.60;;;13.00;99.90;;;;;;6076951;23;20022;-85
2022/08/08 01:43:27;;;;;;;0.50;0.50;;;13.00;99.90;;;;;;6095438;23;20063;-84
2022/08/08 01:46:24;;;;;;;1.50;0.57;;;13.10;99.90;;;;;;6106307;23;20022;-89
2022/08/08 01:49:16;;;;;;;1.08;0.50;;;13.10;99.90;;;;;;6007834;23;20476;-89
2022/08/08 01:52:23;;;;;;;1.10;0.60;;;13.10;99.90;;;;;;6007878;23;20317;-89
2022/08/08 01:55:11;;;;;;;2.05;0.52;;;13.10;99.90;;;;;;5896971;24;20026;-89
2022/08/08 01:57:58;;;;;;;0.82;0.50;;;13.10;99.90;;;;;;5896650;24;20077;-90
2022/08/08 02:01:06;;;;;;;0.70;0.52;;;13.10;99.90;;;;;;5874093;24;20447;-88
2022/08/08 02:03:58;;;;;;;0.90;0.60;;;13.10;99.90;;;;;;5847097;24;20097;-87
2022/08/08 02:07:02;;;;;;;0.98;0.50;;;13.10;99.90;;;;;;5923838;23;20025;-87
2022/08/08 02:10:05;;;;;;;1.98;0.73;;;13.20;99.90;;;;;;5874161;24;20485;-88
2022/08/08 02:12:51;;;;;;;0.93;0.40;;;13.20;99.90;;;;;;5821160;24;20045;-86
2022/08/08 02:15:26;;;;;;;1.92;0.50;;;13.30;99.90;;;;;;5822560;24;20038;-87
2022/08/08 02:18:19;;;;;;;1.33;0.50;;;13.30;99.90;;;;;;5822474;24;20533;-88
2022/08/08 02:23:49;;;;;;;0.93;0.50;;;13.60;99.90;;;;;;5822167;24;20119;-88
2022/08/08 02:26:31;;;;;;;1.40;0.60;;;13.40;99.90;;;;;;5846112;24;20018;-86
2022/08/08 02:29:39;;;;;;;1.27;0.70;;;13.50;99.90;;;;;;5871663;24;20061;-88
2022/08/08 02:32:32;;;;;;;1.92;0.50;;;13.50;99.90;;;;;;5880943;24;20005;-89
2022/08/08 02:35:01;;;;;;;1.42;0.57;;;13.60;99.90;;;;;;5925963;24;20517;-89
2022/08/08 02:37:57;;;;;;;1.40;0.60;;;13.60;99.90;;;;;;5902660;24;20100;-86
2022/08/08 02:40:25;;;;;;;0.98;0.50;;;13.70;99.90;;;;;;5948482;23;20020;-89
2022/08/08 02:43:09;;;;;;;1.27;0.70;;;13.70;99.90;;;;;;6027414;23;20041;-88
2022/08/08 02:46:27;;;;;;;0.50;0.40;;;13.80;99.90;;;;;;6172610;23;20433;-87
2022/08/08 02:49:11;;;;;;;2.35;0.50;;;13.80;99.90;;;;;;6153950;23;20076;-88
2022/08/08 02:51:48;;;;;;;1.17;0.60;;;13.80;99.90;;;;;;6128600;23;20976;-85
2022/08/08 02:54:36;;;;;;;1.63;0.80;;;13.90;99.90;;;;;;6153542;23;20165;-86
2022/08/08 02:57:26;;;;;;;1.17;0.55;;;13.90;99.90;;;;;;6183590;23;20017;-89
2022/08/08 03:00:09;;;;;;;0.65;0.47;;;13.90;99.90;;;;;;6158634;23;20103;-87
2022/08/08 03:02:53;;;;;;;2.72;0.52;;;14.50;99.90;;;;;;6158258;23;20024;-89
2022/08/08 03:05:39;;;;;;;1.52;0.60;;;13.90;99.90;;;;;;6183216;23;20474;-88
2022/08/08 03:08:24;;;;;;;1.20;0.52;;;14.00;99.90;;;;;;6158695;23;20095;-87
2022/08/08 03:11:27;;;;;;;0.73;0.55;;;14.00;99.90;;;;;;6183739;23;20024;-86
2022/08/08 03:13:52;;;;;;;1.25;0.50;;;14.00;99.90;;;;;;6183546;23;20017;-87
2022/08/08 03:16:45;;;;;;;1.17;0.65;;;14.00;99.90;;;;;;6183458;23;20563;-88
2022/08/08 03:19:23;;;;;;;2.03;0.90;;;14.10;99.90;;;;;;6162535;23;20016;-87
2022/08/08 03:21:48;;;;;;;1.33;0.60;;;14.10;99.90;;;;;;6160221;23;20108;-89
2022/08/08 03:24:18;;;;;;;0.93;0.70;;;14.20;99.90;;;;;;6184485;23;20052;-87
2022/08/08 03:26:51;;;;;;;1.52;0.70;;;14.20;99.90;;;;;;6216040;23;20021;-87
2022/08/08 03:29:20;;;;;;;1.10;0.65;;;14.20;99.90;;;;;;6189746;23;20444;-88
2022/08/08 03:34:34;;;;;;;0.85;0.70;;;14.20;99.90;;;;;;6216059;23;20043;-87
2022/08/08 03:37:00;;;;;;;2.15;0.60;;;14.30;99.90;;;;;;6189263;23;20016;-89
2022/08/08 03:39:26;;;;;;;1.95;0.70;;;14.30;99.90;;;;;;6189098;23;20082;-88
2022/08/08 03:41:51;;;;;;;0.90;0.60;;;14.30;99.90;;;;;;6216067;23;20018;-87
2022/08/08 03:44:17;;;;;;;1.65;0.75;;;14.30;99.90;;;;;;6216205;23;20036;-87
2022/08/08 03:46:47;;;;;;;0.68;0.50;;;14.40;99.90;;;;;;6189110;23;20344;-87
2022/08/08 03:49:25;;;;;;;0.90;0.60;;;14.40;99.90;;;;;;6189520;23;20041;-88
2022/08/08 03:51:55;;;;;;;2.15;0.60;;;14.40;99.90;;;;;;6215482;23;20020;-88
2022/08/08 03:54:22;;;;;;;1.25;0.70;;;14.40;99.90;;;;;;6216112;23;20453;-87
2022/08/08 03:56:48;;;;;;;0.88;0.57;;;14.70;99.90;;;;;;6215361;23;20321;-86
2022/08/08 03:59:13;;;;;;;1.38;0.70;;;14.40;99.90;;;;;;6215985;23;20023;-87
2022/08/08 04:01:40;;;;;;;1.25;0.73;;;14.50;99.90;;;;;;6215470;23;20063;-87
2022/08/08 04:04:06;;;;;;;0.88;0.47;;;14.70;99.90;;;;;;6215551;23;20414;-86
2022/08/08 04:06:32;;;;;;;1.95;0.60;;;14.50;99.90;;;;;;6215684;23;20052;-87
2022/08/08 04:08:59;;;;;;;0.68;0.50;;;14.50;99.90;;;;;;6188893;23;20028;-87
2022/08/08 04:11:25;;;;;;;0.95;0.63;;;14.50;99.90;;;;;;6215630;23;20443;-86
2022/08/08 04:13:52;;;;;;;1.92;0.63;;;14.50;99.90;;;;;;6188768;23;20028;-87
2022/08/08 04:16:18;;;;;;;0.95;0.70;;;14.60;99.90;;;;;;6216269;23;20099;-92
2022/08/08 04:18:45;;;;;;;1.60;0.70;;;14.40;99.90;;;;;;6189411;23;20055;-87
2022/08/08 04:21:11;;;;;;;1.27;0.80;;;14.50;99.90;;;;;;6215656;23;20017;-88
2022/08/08 04:23:37;;;;;;;1.35;0.73;;;14.60;99.90;;;;;;6188641;23;20441;-86
2022/08/08 04:26:02;;;;;;;1.38;0.82;;;14.50;99.90;;;;;;6215137;23;20024;-88
2022/08/08 04:28:28;;;;;;;0.80;0.60;;;14.60;99.90;;;;;;6215653;23;20016;-86
2022/08/08 04:30:54;;;;;;;1.65;0.68;;;14.50;99.90;;;;;;6215069;23;20313;-87
2022/08/08 04:33:19;;;;;;;0.80;0.70;;;14.70;99.90;;;;;;6215026;23;20073;-87
2022/08/08 04:35:45;;;;;;;1.00;0.60;;;14.90;99.90;;;;;;6187788;23;20048;-89
2022/08/08 04:38:11;;;;;;;0.85;0.60;;;14.70;99.90;;;;;;6215072;23;20095;-86
2022/08/08 04:40:37;;;;;;;3.17;0.70;;;14.70;99.90;;;;;;6215720;23;20023;-85
2022/08/08 04:43:03;;;;;;;1.77;0.77;;;14.70;99.90;;;;;;6188200;23;20439;-88
2022/08/08 04:45:29;;;;;;;3.80;0.93;;;14.70;99.90;;;;;;6163944;23;20020;-87
2022/08/08 04:47:57;;;;;;;2.90;0.85;;;14.70;99.90;;;;;;6187994;23;20379;-88
2022/08/08 04:50:23;;;;;;;2.97;0.90;;;14.70;99.90;;;;;;6188897;23;20024;-89
2022/08/08 04:52:49;;;;;;;2.50;0.85;;;14.70;99.90;;;;;;6188379;23;20019;-88
2022/08/08 04:55:14;;;;;;;2.40;1.00;;;14.80;99.90;;;;;;6188499;23;20016;-88
2022/08/08 04:57:40;;;;;;;2.10;0.70;;;14.80;99.90;;;;;;6214784;23;20099;-87
2022/08/08 05:00:07;;;;;;;2.33;1.10;;;14.80;99.90;;;;;;6214887;23;20020;-87
2022/08/08 05:02:33;;;;;;;1.92;1.02;;;14.80;99.90;;;;;;6217563;23;20023;-87
2022/08/08 05:04:59;;;;;;;1.83;0.70;;;14.90;99.90;;;;;;6228937;23;20336;-86
2022/08/08 05:07:25;;;;;;;1.95;0.88;;;14.80;99.90;;;;;;6199242;23;20024;-88
2022/08/08 05:09:51;;;;;;;1.60;0.80;;;14.80;99.90;;;;;;6215465;23;20083;-88
2022/08/08 05:12:17;;;;;;;1.25;0.80;;;14.80;99.90;;;;;;6205121;23;20020;-87
2022/08/08 05:14:43;;;;;;;2.25;0.80;;;14.80;99.90;;;;;;6231859;23;20020;-85
2022/08/08 05:17:09;;;;;;;1.48;0.80;;;14.90;99.90;;;;;;6190779;23;20060;-87
2022/08/08 05:19:36;;;;;;;3.28;0.88;;;14.80;99.90;;;;;;6188371;23;20024;-85
2022/08/08 05:22:07;;;;;;;2.95;1.50;;;14.90;99.90;;;;;;6215377;23;20051;-88
2022/08/08 05:24:33;;;;;;;1.33;0.70;;;14.90;99.90;;;;;;6215216;23;20106;-88
2022/08/08 05:26:59;;;;;;;2.33;0.60;;;14.90;99.90;;;;;;6215142;23;20025;-88
2022/08/08 05:29:27;;;;;;;1.98;0.80;;;14.90;99.90;;;;;;6215096;23;20021;-87
2022/08/08 05:31:52;;;;;;;2.33;1.00;;;14.90;99.90;;;;;;6215400;23;20013;-86
2022/08/08 05:34:25;;;;;;;1.15;0.80;;;14.90;99.90;;;;;;6214830;23;20376;-88
2022/08/08 05:36:53;;;;;;;1.85;0.70;;;15.20;99.90;;;;;;6163695;23;20024;-90
2022/08/08 05:39:21;;;;;;;1.95;0.90;;;15.00;99.90;;;;;;6214813;23;20016;-88
2022/08/08 05:44:47;;;;;;;1.08;0.73;;;15.10;99.90;;;;;;6225122;22;20078;-90
2022/08/08 05:53:43;;;;;;;1.02;0.60;;;15.20;99.90;;;;;;6203591;22;20417;-89
2022/08/08 05:56:13;;;;;;;2.03;0.80;;;15.20;99.90;;;;;;6215862;23;20087;-91
2022/08/08 05:58:42;;;;;;;2.30;0.70;;;15.30;99.90;;;;;;6171741;23;20032;-88
2022/08/08 06:01:10;;;;;;;1.73;0.68;;;15.40;99.90;;;;;;6221989;23;20541;-88
2022/08/08 06:06:31;;;;;;;1.40;0.70;;;15.50;99.90;;;;;;6248101;22;20036;-91
2022/08/08 06:09:07;;;;;;;1.40;0.95;;;15.50;99.90;;;;;;6248522;22;20439;-91
2022/08/08 06:12:02;;;;;;;1.65;0.60;;;15.60;99.90;;;;;;6220869;23;20043;-91
2022/08/08 06:14:54;;;;;;;1.90;0.80;;;15.70;99.90;;;;;;6154434;23;20026;-90
2022/08/08 06:27:12;;;;;;;2.47;1.02;;;16.10;99.90;;;;;;6223863;22;20454;-89
2022/08/08 06:37:31;;;;;;;2.38;0.60;;;16.40;99.90;;;;;;6245523;23;20030;-90
2022/08/08 06:40:03;;;;;;;1.13;0.65;;;16.40;99.90;;;;;;6246948;23;20013;-91
2022/08/08 06:42:34;;;;;;;2.70;0.70;;;16.50;99.90;;;;;;6250595;22;20443;-89
2022/08/08 06:45:03;;;;;;;1.38;0.80;;;16.60;99.90;;;;;;6249109;23;20023;-90
2022/08/08 06:47:29;;;;;;;0.50;0.50;;;16.60;99.90;;;;;;6246021;22;20012;-87
2022/08/08 06:49:56;;;;;;;0.95;0.50;;;16.70;99.90;;;;;;6174627;23;20051;-89
2022/08/08 06:52:22;;;;;;;0.88;0.60;;;16.70;99.90;;;;;;6189782;23;20355;-88
2022/08/08 06:54:50;;;;;;;1.10;0.60;;;16.80;99.90;;;;;;6214993;23;20084;-90
2022/08/08 06:57:16;;;;;;;4.05;0.80;;;16.90;99.90;;;;;;6214719;23;20017;-87
2022/08/08 06:59:42;;;;;;;1.25;0.60;;;17.00;99.90;;;;;;6188326;23;20071;-88
2022/08/08 07:02:19;;;;;;;1.42;0.60;;;17.10;99.90;;;;;;6164102;23;20062;-88
2022/08/08 07:04:58;;;;;;;2.65;0.70;;;17.20;99.90;;;;;;6189366;23;20024;-87
2022/08/08 07:07:41;;;;;;;1.17;0.70;;;17.20;99.90;;;;;;6216439;23;20051;-87
2022/08/08 07:10:24;;;;;;;1.15;0.82;;;17.20;99.90;;;;;;6189326;23;20021;-89
2022/08/08 07:13:35;;;;;;;1.33;0.70;;;17.20;99.90;;;;;;6216296;23;20316;-86
2022/08/08 07:16:17;;;;;;;2.28;1.52;;;17.40;99.90;;;;;;6041625;23;20015;-86
2022/08/08 07:18:49;;;;;;;3.22;1.20;;;17.60;99.90;;;;;;6064899;23;20072;-87
2022/08/08 07:21:17;;;;;;;3.03;0.80;;;17.70;99.90;;;;;;6042163;23;20095;-87
2022/08/08 07:23:58;;;;;;;1.20;0.80;;;17.70;99.90;;;;;;6041646;23;20058;-86
2022/08/08 07:26:36;;;;;;;2.83;0.90;;;17.70;99.90;;;;;;6042328;23;20019;-87
2022/08/08 07:32:22;;;;;;;1.50;0.55;;;17.90;99.90;;;;;;6244640;22;20024;-84
2022/08/08 07:34:49;;;;;;;4.03;0.80;;;18.10;99.90;;;;;;6243885;23;20096;-85
2022/08/08 07:37:15;;;;;;;0.77;0.50;;;18.40;99.90;;;;;;6247363;22;20016;-88
2022/08/08 07:39:45;;;;;;;0.90;0.50;;;18.60;99.90;;;;;;6247600;22;20335;-87
2022/08/08 07:42:14;;;;;;;0.75;0.40;;;18.80;99.90;;;;;;6246791;23;20012;-88
2022/08/08 07:44:51;;;;;;;1.48;0.50;;;19.10;99.90;;;;;;6246521;22;20016;-87
2022/08/08 07:47:17;;;;;;;1.42;0.50;;;19.20;99.90;;;;;;6221783;23;20022;-86
2022/08/08 07:49:50;;;;;;;2.33;0.38;;;19.50;99.90;;;;;;6245119;23;20047;-89
2022/08/08 07:52:16;;;;;;;2.80;0.50;;;20.10;99.90;;;;;;6245095;23;20049;-86
2022/08/08 07:54:48;;;;;;;1.95;0.57;;;20.00;99.90;;;;;;6245164;23;20043;-87
2022/08/08 07:57:25;;;;;;;1.50;0.40;;;20.30;99.90;;;;;;6246582;22;20051;-88
2022/08/08 08:00:14;;;;;;;1.48;0.40;;;20.50;99.90;;;;;;6244389;23;20059;-88
2022/08/08 08:03:33;;;;;;;;;;;;;;;;;;;;;
2022/08/08 08:06:09;;;;;;;1.00;0.60;;;20.90;99.90;;;;;;6205057;22;20382;-89
2022/08/08 08:08:39;;;;;;;2.90;0.50;;;20.80;99.90;;;;;;6190063;23;20060;-87
2022/08/08 08:11:11;;;;;;;1.00;0.43;;;20.70;99.90;;;;;;6189077;23;20048;-87
2022/08/08 08:13:57;;;;;;;1.10;0.28;;;20.50;99.90;;;;;;6215735;23;20108;-89
2022/08/08 08:16:29;;;;;;;0.30;0.30;;;20.50;99.90;;;;;;6215676;23;20052;-90
2022/08/08 08:19:00;;;;;;;0.95;0.30;;;20.50;99.90;;;;;;6216920;23;20448;-88
2022/08/08 08:21:44;;;;;;;1.38;0.40;;;20.40;99.90;;;;;;6067444;23;20093;-88
2022/08/08 08:24:13;;;;;;;0.50;0.30;;;20.40;99.90;;;;;;6042725;23;20454;-89
2022/08/08 08:26:39;;;;;;;0.55;0.30;;;20.40;99.90;;;;;;6042127;23;20025;-86
2022/08/08 08:29:07;;;;;;;0.30;0.20;;;20.50;99.90;;;;;;6042226;23;20074;-88
2022/08/08 08:31:34;;;;;;;1.33;0.30;;;20.60;99.90;;;;;;6042553;23;20030;-89
2022/08/08 08:34:02;;;;;;;1.05;0.20;;;20.50;99.90;;;;;;6044043;23;20054;-87
2022/08/08 08:36:28;;;;;;;0.55;0.22;;;20.60;99.90;;;;;;6074840;23;20383;-88
2022/08/08 08:38:54;;;;;;;1.60;0.30;;;20.70;99.90;;;;;;6068482;23;20035;-89
2022/08/08 08:41:33;;;;;;;2.25;0.30;;;20.70;99.90;;;;;;6075493;23;20019;-87
2022/08/08 08:44:10;;;;;;;2.15;0.30;;;20.80;99.90;;;;;;6059338;23;20382;-89
2022/08/08 08:49:05;;;;;;;1.73;0.40;;;21.00;99.90;;;;;;6244590;22;20054;-91
2022/08/08 08:55:20;;;;;;;0.95;0.30;;;21.00;99.90;;;;;;5981192;23;20429;-91
2022/08/08 08:57:49;;;;;;;0.85;0.30;;;21.10;99.90;;;;;;5995128;23;20035;-91
2022/08/08 09:00:15;;;;;;;1.85;0.20;;;21.20;99.90;;;;;;6009842;23;20348;-87
2022/08/08 09:08:20;;;;;;;;;;;21.30;99.90;;;;;;6247994;22;20028;-89
2022/08/08 09:14:27;;;;;;;1.05;0.28;;;21.40;99.90;;;;;;6239676;22;20463;-91
2022/08/08 09:16:56;;;;;;;1.02;0.30;;;21.70;99.90;;;;;;6215995;23;20023;-86
2022/08/08 09:19:25;;;;;;;0.68;0.20;;;21.70;99.90;;;;;;6243666;23;20031;-86
2022/08/08 09:21:55;;;;;;;1.52;0.30;;;21.40;99.90;;;;;;6241414;23;20024;-87
2022/08/08 09:24:24;;;;;;;0.88;0.30;;;21.80;99.90;;;;;;6243981;23;20039;-91
2022/08/08 09:27:05;;;;;;;1.17;0.20;;;21.80;99.90;;;;;;6243213;23;20347;-86
2022/08/08 09:29:41;;;;;;;1.15;0.20;;;22.00;99.90;;;;;;6246220;22;20339;-86
2022/08/08 09:32:09;;;;;;;3.30;0.40;;;22.00;99.90;;;;;;6243617;23;20388;-85
2022/08/08 09:34:38;;;;;;;0.20;0.20;;;22.00;99.90;;;;;;6244844;22;20055;-87
2022/08/08 09:37:08;;;;;;;2.65;0.55;;;22.20;99.90;;;;;;6244239;22;20027;-89
2022/08/08 09:39:46;;;;;;;0.82;0.30;;;22.30;99.90;;;;;;6245189;22;20012;-88
2022/08/08 09:42:15;;;;;;;0.95;0.20;;;22.50;99.90;;;;;;6245765;22;20435;-86
2022/08/08 09:45:15;;;;;;;2.25;0.30;;;22.60;99.90;;;;;;6245811;23;20480;-86
2022/08/08 09:47:42;;;;;;;1.55;0.20;;;22.60;99.90;;;;;;6246172;22;20027;-87
2022/08/08 09:50:22;;;;;;;2.17;0.35;;;22.60;99.90;;;;;;6245341;22;20086;-89
2022/08/08 09:53:46;;;;;;;1.88;0.30;;;22.70;99.90;;;;;;6243483;22;20451;-90
2022/08/08 09:56:14;;;;;;;0.47;0.40;;;22.70;99.90;;;;;;6255211;22;20023;-86
2022/08/08 09:58:52;;;;;;;1.98;0.30;;;22.80;99.90;;;;;;6250067;22;20069;-86
2022/08/08 10:01:20;;;;;;;0.75;0.30;;;22.90;99.90;;;;;;6250006;22;20022;-90
2022/08/08 10:03:49;;;;;;;0.25;0.15;;;22.90;99.90;;;;;;6225546;22;20054;-93
2022/08/08 10:06:20;;;;;;;1.23;0.30;;;23.00;99.90;;;;;;6254166;22;20061;-92
2022/08/08 10:08:47;;;;;;;0.30;0.13;;;23.10;99.90;;;;;;6282557;22;20090;-86
2022/08/08 10:11:20;;;;;;;2.33;0.30;;;23.10;99.90;;;;;;6285424;22;20051;-90
2022/08/08 10:14:15;;;;;;;1.50;0.30;;;23.30;99.90;;;;;;6253945;22;20091;-91
2022/08/08 10:16:42;;;;;;;1.67;0.30;;;23.40;99.90;;;;;;6128596;23;20028;-94
2022/08/08 10:19:10;;;;;;;1.13;0.30;;;23.50;99.90;;;;;;6132036;23;20253;-89
2022/08/08 10:21:37;;;;;;;0.75;0.20;;;23.50;99.90;;;;;;6153371;23;20010;-90
2022/08/08 10:24:08;;;;;;;0.75;0.40;;;23.50;99.90;;;;;;6128322;23;20464;-90
2022/08/08 10:26:38;;;;;;;0.35;0.20;;;23.40;99.90;;;;;;6153392;23;20009;-92
2022/08/08 10:29:07;;;;;;;2.20;0.28;;;23.40;99.90;;;;;;6128441;23;20032;-88
2022/08/08 10:34:21;;;;;;;1.08;0.30;;;23.60;99.90;;;;;;6129694;23;20337;-88
2022/08/08 10:36:48;;;;;;;1.45;0.20;;;23.80;99.90;;;;;;6155073;23;20028;-89
2022/08/08 10:39:17;;;;;;;0.50;0.50;;;23.90;99.90;;;;;;6130082;23;20026;-90
2022/08/08 10:41:53;;;;;;;1.10;0.20;;;24.00;99.90;;;;;;6154828;23;20022;-91
2022/08/08 10:44:27;;;;;;;1.52;0.40;;;24.10;99.90;;;;;;6129824;23;20022;-90
2022/08/08 10:46:52;;;;;;;0.95;0.25;;;24.10;99.90;;;;;;6198213;22;20027;-91
2022/08/08 10:49:19;;;;;;;3.85;0.30;;;24.10;99.90;;;;;;6251734;22;20023;-91
2022/08/08 10:51:45;;;;;;;2.45;0.22;;;24.10;99.90;;;;;;6251181;22;20355;-88
2022/08/08 10:54:22;;;;;;;1.35;0.20;;;24.10;99.90;;;;;;6278443;22;20018;-90
2022/08/08 10:56:56;;;;;;;1.45;0.25;;;24.30;99.90;;;;;;6250229;22;20028;-88
2022/08/08 10:59:22;;;;;;;1.65;0.30;;;24.60;99.90;;;;;;6250609;22;20462;-89
2022/08/08 11:01:49;;;;;;;1.80;0.30;;;24.50;99.70;;;;;;6278085;22;20023;-87
2022/08/08 11:04:15;;;;;;;1.27;0.20;;;24.50;99.90;;;;;;6251306;22;20015;-89
2022/08/08 11:06:41;;;;;;;1.27;0.20;;;24.50;99.90;;;;;;6277850;22;20121;-89
2022/08/08 11:09:09;;;;;;;1.20;0.20;;;24.50;99.90;;;;;;6277997;22;20008;-91
2022/08/08 11:11:43;;;;;;;1.33;0.30;;;24.60;99.90;;;;;;6250621;22;20529;-88
2022/08/08 11:14:12;;;;;;;1.50;0.30;;;24.60;99.60;;;;;;6250337;22;20023;-88
2022/08/08 11:16:44;;;;;;;0.47;0.10;;;24.70;99.70;;;;;;6251920;22;20274;-90
2022/08/08 11:19:10;;;;;;;1.98;0.30;;;24.40;99.90;;;;;;6278551;22;20035;-88
2022/08/08 11:21:44;;;;;;;3.13;0.22;;;24.50;99.70;;;;;;6278092;22;20019;-91
2022/08/08 11:24:11;;;;;;;1.00;0.20;;;24.40;99.90;;;;;;6250780;22;20022;-91
2022/08/08 11:26:40;;;;;;;2.05;0.85;;;24.10;99.90;;;;;;6278077;22;20020;-90
2022/08/08 11:29:07;;;;;;;1.63;0.30;;;24.10;99.60;;;;;;6250729;22;20015;-89
2022/08/08 11:31:47;;;;;;;2.03;0.20;;;24.30;99.60;;;;;;6250346;22;20438;-89
2022/08/08 11:34:16;;;;;;;1.13;0.30;;;24.20;98.90;;;;;;6277968;22;20066;-87
2022/08/08 11:36:43;;;;;;;0.70;0.13;;;24.30;99.00;;;;;;6250598;22;20050;-89
2022/08/08 11:39:11;;;;;;;0.85;0.20;;;24.30;99.00;;;;;;6277643;22;20012;-88
2022/08/08 11:41:37;;;;;;;1.52;0.22;;;24.20;98.50;;;;;;6250806;22;20019;-87
2022/08/08 11:44:06;;;;;;;1.35;0.32;;;24.40;98.00;;;;;;6249786;22;20051;-88
2022/08/08 11:46:39;;;;;;;1.38;0.22;;;24.40;98.70;;;;;;6277086;22;20098;-87
2022/08/08 11:49:17;;;;;;;1.00;0.20;;;24.20;97.50;;;;;;6249633;22;20070;-88
2022/08/08 11:51:44;;;;;;;0.50;0.10;;;24.10;97.90;;;;;;6249673;22;20034;-88
2022/08/08 11:54:09;;;;;;;0.35;0.10;;;24.30;99.00;;;;;;6249645;22;20038;-89
2022/08/08 11:59:10;;;;;;;0.80;0.20;;;24.60;98.50;;;;;;6246678;22;20443;-85
2022/08/08 12:01:41;;;;;;;1.75;0.20;;;24.90;97.60;;;;;;6222956;23;20027;-85
2022/08/08 12:04:08;;;;;;;1.00;0.20;;;25.00;98.00;;;;;;6232907;23;20020;-85
2022/08/08 12:06:49;;;;;;;1.38;0.20;;;25.30;97.20;;;;;;6249971;23;20063;-91
2022/08/08 12:09:37;;;;;;;;;;;;;;;;;;;;;
2022/08/08 12:41:43;;;;;;;0.60;0.20;;;26.80;93.70;;;;;;6214112;22;20019;31
2022/08/08 12:51:49;;;;;;;1.30;0.20;;;26.60;93.00;;;;;;6217160;22;20360;-89
2022/08/08 12:54:35;;;;;;;0.98;0.20;;;26.70;91.60;;;;;;6213642;23;20031;-90
2022/08/08 14:50:16;;;;;;;1.33;0.20;;;25.70;93.10;;;;;;6170640;23;20035;31
2022/08/08 16:39:19;;;;;;;0.35;0.10;;;23.80;95.90;;;;;;6207944;22;20024;-90
2022/08/08 18:53:58;;;;;;;1.65;0.32;;;19.60;99.90;;;;;;6203613;22;20024;-87
2022/08/08 18:56:29;;;;;;;0.80;0.60;;;19.50;99.90;;;;;;6281173;22;20035;-86
2022/08/08 18:58:55;;;;;;;1.75;0.40;;;19.50;99.90;;;;;;6248458;22;20079;-85
2022/08/08 19:01:22;;;;;;;1.30;0.30;;;19.40;99.90;;;;;;6253011;22;20029;-88
2022/08/08 19:03:55;;;;;;;0.50;0.30;;;19.40;99.90;;;;;;6190732;23;20026;-87
2022/08/08 19:06:31;;;;;;;;;;;19.30;99.90;;;;;;6189146;23;20024;-86
2022/08/08 19:09:14;;;;;;;0.50;0.30;;;19.30;99.90;;;;;;6190394;23;20319;-85
2022/08/08 19:15:01;;;;;;;0.25;0.20;;;19.10;99.90;;;;;;6149979;23;20169;-87
2022/08/08 19:17:27;;;;;;;1.13;0.35;;;19.00;99.90;;;;;;6129166;23;20022;-85
2022/08/08 19:58:11;;;;;;;2.60;0.38;;;18.10;99.90;;;;;;6166670;23;20246;31
2022/08/08 20:18:03;;;;;;;1.17;0.50;;;17.70;99.90;;;;;;6228633;22;20023;-90
2022/08/08 20:31:23;;;;;;;3.63;0.50;;;17.40;99.90;;;;;;6201485;22;20157;-89
2022/08/08 20:34:04;;;;;;;0.57;0.40;;;17.30;99.90;;;;;;6190000;23;20017;-90
2022/08/08 20:36:30;;;;;;;1.15;0.50;;;17.30;99.90;;;;;;6191134;23;20467;-88
2022/08/08 20:46:19;;;;;;;0.40;0.40;;;17.00;99.90;;;;;;6192092;22;20041;-89
2022/08/08 20:48:55;;;;;;;1.05;0.50;;;16.90;99.90;;;;;;6039650;23;20023;-88
2022/08/08 20:56:36;;;;;;;3.08;0.50;;;16.60;99.90;;;;;;5973094;24;20072;-87
2022/08/08 21:20:34;;;;;;;;;;;;;;;;;;;;;
2022/08/08 21:30:49;;;;;;;0.82;0.43;;;16.20;99.90;;;;;;5873509;24;20024;-88
2022/08/08 21:48:04;;;;;;;2.20;0.75;;;16.00;99.90;;;;;;5897103;24;20430;-88
2022/08/08 21:50:32;;;;;;;1.58;0.60;;;15.90;99.90;;;;;;5879913;24;20069;-87
2022/08/08 21:53:08;;;;;;;0.90;0.65;;;15.50;99.90;;;;;;5929349;24;20460;-89
2022/08/08 21:55:42;;;;;;;1.75;0.68;;;15.90;99.90;;;;;;5932380;24;20017;-86
2022/08/08 21:58:10;;;;;;;1.38;0.70;;;15.90;99.90;;;;;;5928677;24;20060;-88
2022/08/08 22:00:36;;;;;;;0.85;0.60;;;15.90;99.90;;;;;;5959487;23;20463;-88
2022/08/08 22:03:08;;;;;;;0.60;0.50;;;15.80;99.90;;;;;;6051836;23;20020;-87
2022/08/08 22:05:34;;;;;;;3.42;0.70;;;15.70;99.90;;;;;;6218430;23;20016;-87
2022/08/08 22:08:04;;;;;;;1.30;0.70;;;15.60;99.90;;;;;;6218955;23;20031;-88
2022/08/08 22:10:38;;;;;;;3.13;0.65;;;15.70;99.90;;;;;;6217962;23;20020;-88
2022/08/08 22:13:08;;;;;;;1.48;0.60;;;15.60;99.90;;;;;;6246940;23;20019;-88
2022/08/08 22:15:41;;;;;;;0.68;0.50;;;15.60;99.90;;;;;;6229093;23;20095;-86
2022/08/08 22:18:12;;;;;;;1.30;0.75;;;15.50;99.90;;;;;;6223503;23;20020;-87
2022/08/08 22:20:40;;;;;;;0.65;0.60;;;15.80;99.90;;;;;;6246401;23;20016;-87
2022/08/08 22:23:15;;;;;;;2.75;0.63;;;15.60;99.90;;;;;;6227357;23;20023;-87
2022/08/08 22:25:41;;;;;;;0.30;0.30;;;15.50;99.90;;;;;;6255166;23;20082;-87
2022/08/08 22:28:11;;;;;;;0.28;0.20;;;15.40;99.90;;;;;;6219180;23;20012;-88
2022/08/08 22:30:37;;;;;;;1.45;0.30;;;15.50;99.90;;;;;;6247491;23;20016;-87
2022/08/08 22:33:09;;;;;;;0.30;0.30;;;15.30;99.90;;;;;;6221086;23;20450;-88
2022/08/08 22:39:47;;;;;;;0.20;0.10;;;15.10;99.90;;;;;;6246921;23;20030;-88
2022/08/08 22:45:37;;;;;;;0.30;0.30;;;15.20;99.90;;;;;;6128910;23;20021;-87
2022/08/08 22:48:15;;;;;;;0.63;0.35;;;15.30;99.90;;;;;;6153952;23;20028;-88
2022/08/08 22:50:48;;;;;;;0.52;0.50;;;14.60;99.90;;;;;;6154327;23;20076;-88
2022/08/08 22:53:14;;;;;;;1.00;0.40;;;14.80;99.90;;;;;;6129506;23;20025;-86
2022/08/08 22:55:40;;;;;;;1.30;0.63;;;14.90;99.90;;;;;;6129806;23;20017;-88
2022/08/08 22:58:14;;;;;;;1.55;0.70;;;15.00;99.90;;;;;;6153368;23;20452;-87
2022/08/08 23:01:08;;;;;;;1.38;0.65;;;14.90;99.90;;;;;;6129523;23;20017;-87
2022/08/08 23:04:28;;;;;;;0.55;0.50;;;14.80;99.90;;;;;;6129702;23;20017;-87
2022/08/08 23:07:06;;;;;;;0.52;0.50;;;14.80;99.90;;;;;;6129378;23;20022;-86
2022/08/08 23:10:01;;;;;;;0.68;0.40;;;14.80;99.90;;;;;;6128897;23;20376;-89
2022/08/08 23:12:42;;;;;;;0.38;0.20;;;14.80;99.90;;;;;;6131372;23;20013;-87
2022/08/08 23:15:14;;;;;;;0.40;0.30;;;14.70;99.90;;;;;;6129418;23;20032;-87
2022/08/08 23:18:01;;;;;;;0.57;0.40;;;14.70;99.90;;;;;;6153844;23;20025;-88